Time;durP1;ratioP1;P1;durP2;ratioP2;P2;SDS_P1;SDS_P2;PMS_P1;PMS_P2;Temp;Humidity;BMP_temperature;BMP_pressure;BME280_temperature;BME280_humidity;BME280_pressure;Samples;Min_cycle;Max_cycle;Signal;HPM_P1;HPM_P2
2023/01/14 00:00:30;;;;;;;;;;;18.00;80.90;;;;;;5092427;28;20017;-78
2023/01/14 00:02:58;;;;;;;;;;;17.90;81.60;;;;;;5093033;28;20153;-79
2023/01/14 00:05:35;;;;;;;;;;;17.80;82.20;;;;;;5092165;28;19955;-79
2023/01/14 00:11:05;;;;;;;;;;;17.50;83.60;;;;;;5088424;28;20335;-79
2023/01/14 00:13:43;;;;;;;;;;;17.50;84.40;;;;;;5093968;28;19916;-79
2023/01/14 00:16:15;;;;;;;;;;;17.40;85.10;;;;;;5094208;28;19908;-79
2023/01/14 00:18:43;;;;;;;;;;;17.30;85.80;;;;;;5092741;28;19987;-79
2023/01/14 00:21:15;;;;;;;;;;;17.20;86.30;;;;;;5092149;28;19972;-79
2023/01/14 00:23:44;;;;;;;;;;;17.20;86.70;;;;;;5093150;28;19911;-79
2023/01/14 00:26:14;;;;;;;;;;;17.10;87.10;;;;;;5093868;28;19918;-79
2023/01/14 00:28:49;;;;;;;;;;;17.00;87.60;;;;;;5093620;28;20141;-79
2023/01/14 00:31:17;;;;;;;;;;;17.00;87.90;;;;;;5092414;28;19908;-79
2023/01/14 00:34:03;;;;;;;;;;;16.90;88.30;;;;;;5093044;28;19998;-79
2023/01/14 00:36:28;;;;;;;;;;;16.90;88.70;;;;;;5091819;28;20002;-79
2023/01/14 00:39:01;;;;;;;;;;;16.80;88.90;;;;;;5092242;28;19990;-79
2023/01/14 00:41:29;;;;;;;;;;;16.80;89.30;;;;;;5092319;28;19908;-79
2023/01/14 00:43:59;;;;;;;;;;;16.80;89.50;;;;;;5094104;28;20273;-79
2023/01/14 00:46:29;;;;;;;;;;;16.70;89.70;;;;;;5096113;28;19973;-79
2023/01/14 00:48:58;;;;;;;;;;;16.70;90.00;;;;;;5095026;28;20289;-79
2023/01/14 00:51:24;;;;;;;;;;;16.70;90.10;;;;;;5095032;28;19908;-79
2023/01/14 00:53:51;;;;;;;;;;;16.60;90.10;;;;;;5096728;28;19908;-79
2023/01/14 00:56:17;;;;;;;;;;;16.60;90.20;;;;;;5098165;28;19999;-78
2023/01/14 00:58:43;;;;;;;;;;;16.60;90.20;;;;;;5097660;28;19947;-79
2023/01/14 01:01:08;;;;;;;;;;;16.60;90.30;;;;;;5097837;28;19951;-79
2023/01/14 01:03:38;;;;;;;;;;;16.50;90.40;;;;;;5097796;28;20011;-79
2023/01/14 01:06:04;;;;;;;;;;;16.50;90.50;;;;;;5099115;28;19951;-78
2023/01/14 01:08:30;;;;;;;;;;;16.50;90.50;;;;;;5097679;28;19951;-78
2023/01/14 01:10:56;;;;;;;;;;;16.50;90.60;;;;;;5097525;28;19912;-79
2023/01/14 01:13:23;;;;;;;;;;;16.40;90.60;;;;;;5098407;28;19912;-79
2023/01/14 01:15:49;;;;;;;;;;;16.40;90.60;;;;;;5097451;28;19912;-79
2023/01/14 01:18:14;;;;;;;;;;;16.40;90.70;;;;;;5096974;28;19958;-79
2023/01/14 01:20:40;;;;;;;;;;;16.40;90.70;;;;;;5097607;28;19951;-79
2023/01/14 01:23:09;;;;;;;;;;;16.30;90.70;;;;;;5096101;28;19919;-79
2023/01/14 01:25:35;;;;;;;;;;;16.30;90.80;;;;;;5096589;28;20262;-79
2023/01/14 01:28:01;;;;;;;;;;;16.30;90.90;;;;;;5096436;28;19942;-79
2023/01/14 01:30:26;;;;;;;;;;;16.30;90.90;;;;;;5096962;28;19916;-79
2023/01/14 01:32:53;;;;;;;;;;;16.30;90.90;;;;;;5095315;28;19943;-78
2023/01/14 01:35:19;;;;;;;;;;;16.30;91.00;;;;;;5097534;28;19962;-79
2023/01/14 01:37:44;;;;;;;;;;;16.20;91.00;;;;;;5096738;28;19935;-79
2023/01/14 01:40:11;;;;;;;;;;;16.20;91.00;;;;;;5095416;28;19908;-79
2023/01/14 01:42:54;;;;;;;;;;;16.20;91.00;;;;;;5095709;28;19908;-79
2023/01/14 01:45:25;;;;;;;;;;;16.20;91.10;;;;;;5096099;28;19908;-79
2023/01/14 01:47:57;;;;;;;;;;;16.20;91.10;;;;;;5095545;28;19920;-79
2023/01/14 01:50:23;;;;;;;;;;;16.20;91.20;;;;;;5096370;28;19923;-78
2023/01/14 01:52:49;;;;;;;;;;;16.20;91.20;;;;;;5096254;28;19908;-79
2023/01/14 01:55:15;;;;;;;;;;;16.10;91.30;;;;;;5095063;28;19919;-79
2023/01/14 01:57:41;;;;;;;;;;;16.10;91.30;;;;;;5095173;28;19943;-79
2023/01/14 02:00:07;;;;;;;;;;;16.10;91.30;;;;;;5097720;28;20052;-79
2023/01/14 02:02:33;;;;;;;;;;;16.10;91.40;;;;;;5096201;28;19912;-79
2023/01/14 02:04:59;;;;;;;;;;;16.10;91.40;;;;;;5096415;28;20183;-79
2023/01/14 02:07:25;;;;;;;;;;;16.10;91.40;;;;;;5095914;28;19916;-79
2023/01/14 02:10:01;;;;;;;;;;;16.00;91.40;;;;;;5096378;28;19916;-79
2023/01/14 02:12:27;;;;;;;;;;;16.00;91.50;;;;;;5096274;28;19908;-79
2023/01/14 02:15:00;;;;;;;;;;;16.00;91.50;;;;;;5056653;28;20121;-79
2023/01/14 02:17:25;;;;;;;;;;;16.00;91.50;;;;;;5091096;28;19915;-79
2023/01/14 02:19:57;;;;;;;;;;;16.00;91.50;;;;;;5090881;28;19909;-79
2023/01/14 02:22:41;;;;;;;;;;;16.00;91.60;;;;;;5093506;28;19957;-78
2023/01/14 02:25:23;;;;;;;;;;;15.90;91.60;;;;;;5095318;28;20151;-79
2023/01/14 02:27:51;;;;;;;;;;;15.90;91.60;;;;;;5093876;28;19916;-79
2023/01/14 02:30:37;;;;;;;;;;;15.90;91.60;;;;;;5093500;28;20010;-79
2023/01/14 02:33:07;;;;;;;;;;;15.90;91.60;;;;;;5094403;28;20035;-79
2023/01/14 02:35:40;;;;;;;;;;;15.90;91.70;;;;;;5093930;28;19908;-79
2023/01/14 02:38:25;;;;;;;;;;;15.90;91.70;;;;;;5094875;28;19916;-79
2023/01/14 02:41:03;;;;;;;;;;;15.80;91.70;;;;;;5094327;28;20281;-79
2023/01/14 02:46:37;;;;;;;;;;;15.80;91.70;;;;;;5096381;28;19919;-78
2023/01/14 02:49:05;;;;;;;;;;;15.80;91.70;;;;;;5095993;28;20368;-79
2023/01/14 02:51:31;;;;;;;;;;;15.80;91.80;;;;;;5097130;28;19938;-79
2023/01/14 02:53:57;;;;;;;;;;;15.70;91.80;;;;;;5094076;28;20155;-79
2023/01/14 02:56:22;;;;;;;;;;;15.70;91.80;;;;;;5094498;28;19908;-79
2023/01/14 02:58:49;;;;;;;;;;;15.70;91.80;;;;;;5093689;28;19994;-79
2023/01/14 03:01:32;;;;;;;;;;;15.70;91.80;;;;;;5094089;28;19908;-79
2023/01/14 03:04:03;;;;;;;;;;;15.70;91.90;;;;;;5094728;28;20050;-79
2023/01/14 03:06:29;;;;;;;;;;;15.70;91.90;;;;;;5091825;28;20277;-79
2023/01/14 03:08:58;;;;;;;;;;;15.70;91.90;;;;;;5094423;28;19965;-79
2023/01/14 03:11:27;;;;;;;;;;;15.70;91.90;;;;;;5095083;28;19908;-79
2023/01/14 03:13:53;;;;;;;;;;;15.70;91.90;;;;;;5096516;28;19920;-79
2023/01/14 03:16:25;;;;;;;;;;;15.60;92.00;;;;;;5094536;28;19912;-79
2023/01/14 03:18:56;;;;;;;;;;;15.60;91.90;;;;;;5096307;28;20273;-79
2023/01/14 03:21:25;;;;;;;;;;;15.60;91.90;;;;;;5094049;28;19915;-79
2023/01/14 03:24:03;;;;;;;;;;;15.60;92.00;;;;;;5094816;28;19909;-79
2023/01/14 03:26:31;;;;;;;;;;;15.60;92.00;;;;;;5095084;28;19912;-79
2023/01/14 03:29:00;;;;;;;;;;;15.60;92.00;;;;;;5095017;28;19943;-79
2023/01/14 03:31:27;;;;;;;;;;;15.60;92.10;;;;;;5093636;28;19908;-79
2023/01/14 03:33:56;;;;;;;;;;;15.60;92.10;;;;;;5093348;28;19927;-79
2023/01/14 03:36:23;;;;;;;;;;;15.50;92.00;;;;;;5095273;28;19939;-79
2023/01/14 03:38:56;;;;;;;;;;;15.50;92.00;;;;;;5094689;28;19919;-79
2023/01/14 03:44:20;;;;;;;;;;;15.50;92.10;;;;;;5095518;28;19923;-79
2023/01/14 03:46:46;;;;;;;;;;;15.50;92.10;;;;;;5094693;28;20209;-79
2023/01/14 03:49:11;;;;;;;;;;;15.50;92.10;;;;;;5094406;28;19908;-79
2023/01/14 03:51:41;;;;;;;;;;;15.40;92.10;;;;;;5094379;28;20184;-78
2023/01/14 03:54:27;;;;;;;;;;;15.40;92.10;;;;;;5094664;28;19919;-79
2023/01/14 03:56:57;;;;;;;;;;;15.40;92.10;;;;;;5094936;28;19908;-79
2023/01/14 03:59:28;;;;;;;;;;;15.40;92.20;;;;;;5093891;28;20357;-79
2023/01/14 04:01:54;;;;;;;;;;;15.40;92.20;;;;;;5094709;28;19991;-79
2023/01/14 04:04:21;;;;;;;;;;;15.30;92.20;;;;;;5094776;28;19916;-79
2023/01/14 04:06:47;;;;;;;;;;;15.30;92.20;;;;;;5095274;28;20292;-79
2023/01/14 04:09:12;;;;;;;;;;;15.50;92.30;;;;;;5093132;28;19909;-79
2023/01/14 04:11:38;;;;;;;;;;;16.40;90.00;;;;;;5093014;28;19919;-79
2023/01/14 04:16:48;;;;;;;;;;;17.40;82.10;;;;;;5093398;28;19937;-79
2023/01/14 04:19:14;;;;;;;;;;;17.80;78.60;;;;;;5092408;28;20006;-79
2023/01/14 04:21:39;;;;;;;;;;;18.20;76.10;;;;;;5093471;28;19908;-79
2023/01/14 04:24:05;;;;;;;;;;;18.50;74.10;;;;;;5092714;28;19908;-79
2023/01/14 04:26:31;;;;;;;;;;;18.70;72.60;;;;;;5092161;28;20200;-79
2023/01/14 04:28:58;;;;;;;;;;;18.80;71.30;;;;;;5090965;28;20369;-79
2023/01/14 04:31:24;;;;;;;;;;;18.80;70.60;;;;;;5091755;28;20296;-79
2023/01/14 04:33:50;;;;;;;;;;;18.90;70.20;;;;;;5091099;28;19923;-79
2023/01/14 04:36:16;;;;;;;;;;;19.00;69.60;;;;;;5092632;28;19919;-79
2023/01/14 04:38:41;;;;;;;;;;;19.20;68.60;;;;;;5092033;28;19973;-79
2023/01/14 04:42:25;;;;;;;;;;;19.30;67.80;;;;;;5092978;28;20063;-79
2023/01/14 04:43:52;;;;;;;;;;;19.40;67.30;;;;;;5092857;28;19985;-79
2023/01/14 04:46:18;;;;;;;;;;;19.40;66.90;;;;;;5091906;28;20288;-79
2023/01/14 04:48:44;;;;;;;;;;;19.40;66.70;;;;;;5091484;28;19920;-79
2023/01/14 04:51:09;;;;;;;;;;;19.50;66.60;;;;;;5091972;28;19908;-79
2023/01/14 04:53:35;;;;;;;;;;;19.60;66.20;;;;;;5092817;28;19908;-79
2023/01/14 04:56:00;;;;;;;;;;;19.70;65.60;;;;;;5092245;28;19908;-79
2023/01/14 04:58:26;;;;;;;;;;;19.70;64.90;;;;;;5092653;28;20192;-79
2023/01/14 05:00:51;;;;;;;;;;;19.80;64.80;;;;;;5093189;28;20277;-79
2023/01/14 05:03:17;;;;;;;;;;;19.80;64.60;;;;;;5093444;28;19992;-79
2023/01/14 05:05:43;;;;;;;;;;;19.80;64.70;;;;;;5092972;28;19908;-80
2023/01/14 05:08:09;;;;;;;;;;;19.70;64.40;;;;;;5094158;28;20083;-79
2023/01/14 05:10:35;;;;;;;;;;;19.70;64.70;;;;;;5091994;28;19908;-79
2023/01/14 05:13:02;;;;;;;;;;;19.60;64.80;;;;;;5092753;28;19908;-79
2023/01/14 05:15:32;;;;;;;;;;;19.60;65.10;;;;;;5091477;28;19908;-79
2023/01/14 05:17:58;;;;;;;;;;;19.50;65.40;;;;;;5091543;28;19908;-80
2023/01/14 05:20:24;;;;;;;;;;;19.40;65.80;;;;;;5091318;28;20239;-79
2023/01/14 05:22:50;;;;;;;;;;;19.30;66.20;;;;;;5092306;28;19908;-79
2023/01/14 05:25:16;;;;;;;;;;;19.20;66.70;;;;;;5091827;28;19908;-79
2023/01/14 05:27:41;;;;;;;;;;;19.10;67.10;;;;;;5091550;28;19912;-79
2023/01/14 05:30:07;;;;;;;;;;;18.90;67.70;;;;;;5092271;28;19942;-79
2023/01/14 05:32:33;;;;;;;;;;;18.80;68.40;;;;;;5095780;28;19916;-80
2023/01/14 05:34:58;;;;;;;;;;;18.70;68.60;;;;;;5093538;28;19985;-79
2023/01/14 05:37:24;;;;;;;;;;;18.60;69.40;;;;;;5092637;28;20293;-79
2023/01/14 05:39:49;;;;;;;;;;;18.50;70.00;;;;;;5093935;28;19908;-79
2023/01/14 05:47:43;;;;;;;;;;;18.20;71.50;;;;;;5094934;28;20199;-79
2023/01/14 05:50:12;;;;;;;;;;;18.20;72.00;;;;;;5095910;28;20264;-79
2023/01/14 05:52:37;;;;;;;;;;;18.10;72.30;;;;;;5095610;28;19909;-79
2023/01/14 05:55:03;;;;;;;;;;;18.10;72.40;;;;;;5095714;28;20188;-80
2023/01/14 05:57:29;;;;;;;;;;;18.10;71.70;;;;;;5095604;28;19951;-79
2023/01/14 05:59:54;;;;;;;;;;;18.30;71.40;;;;;;5094858;28;19908;-79
2023/01/14 06:07:48;;;;;;;;;;;19.00;66.40;;;;;;5095625;28;20015;-79
2023/01/14 06:10:14;;;;;;;;;;;19.20;65.40;;;;;;5093787;28;19999;-79
2023/01/14 06:12:57;;;;;;;;;;;19.30;64.80;;;;;;5093072;28;20066;-79
2023/01/14 06:15:29;;;;;;;;;;;19.30;64.60;;;;;;5094237;28;19940;-79
2023/01/14 06:18:08;;;;;;;;;;;19.30;64.00;;;;;;5094828;28;19955;-80
2023/01/14 06:20:35;;;;;;;;;;;19.40;63.80;;;;;;5095035;28;19915;-79
2023/01/14 06:23:00;;;;;;;;;;;19.40;63.60;;;;;;5094776;28;19908;-79
2023/01/14 06:25:28;;;;;;;;;;;19.40;63.20;;;;;;5093168;28;19991;-79
2023/01/14 06:27:53;;;;;;;;;;;19.40;63.10;;;;;;5094684;28;19956;-79
2023/01/14 06:30:19;;;;;;;;;;;19.40;62.80;;;;;;5093763;28;19966;-79
2023/01/14 06:32:45;;;;;;;;;;;19.40;62.80;;;;;;5094411;28;20345;-80
2023/01/14 06:35:11;;;;;;;;;;;19.30;63.00;;;;;;5092675;28;19908;-80
2023/01/14 06:37:36;;;;;;;;;;;19.30;63.00;;;;;;5092111;28;19992;-80
2023/01/14 06:40:02;;;;;;;;;;;19.30;63.10;;;;;;5092602;28;20207;-79
2023/01/14 06:42:27;;;;;;;;;;;19.20;63.10;;;;;;5092145;28;19950;-79
2023/01/14 06:44:52;;;;;;;;;;;19.30;63.20;;;;;;5091334;28;19969;-79
2023/01/14 06:47:18;;;;;;;;;;;19.30;63.70;;;;;;5090085;28;19918;-79
2023/01/14 06:49:43;;;;;;;;;;;19.20;63.80;;;;;;5090986;28;19918;-79
2023/01/14 06:52:09;;;;;;;;;;;19.20;64.10;;;;;;5091233;28;20273;-79
2023/01/14 06:54:35;;;;;;;;;;;19.10;64.00;;;;;;5091000;28;19912;-79
2023/01/14 06:57:03;;;;;;;;;;;19.10;64.30;;;;;;5090788;28;20265;-79
2023/01/14 06:59:28;;;;;;;;;;;19.00;64.20;;;;;;5093873;28;19908;-79
2023/01/14 07:01:54;;;;;;;;;;;19.00;64.20;;;;;;5093060;28;20257;-79
2023/01/14 07:04:19;;;;;;;;;;;19.00;64.20;;;;;;5094709;28;19939;-79
2023/01/14 07:06:45;;;;;;;;;;;19.00;64.10;;;;;;5093557;28;19948;-79
2023/01/14 07:09:10;;;;;;;;;;;18.90;64.20;;;;;;5094392;28;19912;-79
2023/01/14 07:11:36;;;;;;;;;;;18.90;64.10;;;;;;5093554;28;19944;-79
2023/01/14 07:14:02;;;;;;;;;;;18.90;64.00;;;;;;5092685;28;20201;-79
2023/01/14 07:16:27;;;;;;;;;;;18.90;64.00;;;;;;5094514;28;19908;-79
2023/01/14 07:18:53;;;;;;;;;;;18.90;64.20;;;;;;5094941;28;19989;-79
2023/01/14 07:21:18;;;;;;;;;;;18.90;64.10;;;;;;5093714;28;20151;-79
2023/01/14 07:23:44;;;;;;;;;;;18.90;63.80;;;;;;5092134;28;20441;-79
2023/01/14 07:26:10;;;;;;;;;;;18.90;63.70;;;;;;5092864;28;19912;-79
2023/01/14 07:28:35;;;;;;;;;;;18.90;63.30;;;;;;5093290;28;20535;-79
2023/01/14 07:31:05;;;;;;;;;;;19.00;63.00;;;;;;5092306;28;19912;-79
2023/01/14 07:33:31;;;;;;;;;;;19.00;63.00;;;;;;5092861;28;20243;-79
2023/01/14 07:35:57;;;;;;;;;;;19.00;62.70;;;;;;5092643;28;19909;-79
2023/01/14 07:38:22;;;;;;;;;;;19.00;62.70;;;;;;5091837;28;20051;-79
2023/01/14 07:40:48;;;;;;;;;;;19.00;62.50;;;;;;5092727;28;19909;-79
2023/01/14 07:43:14;;;;;;;;;;;18.90;62.60;;;;;;5092897;28;19908;-79
2023/01/14 07:45:40;;;;;;;;;;;18.90;62.80;;;;;;5092035;28;20296;-79
2023/01/14 07:48:06;;;;;;;;;;;18.90;62.80;;;;;;5091904;28;19977;-79
2023/01/14 07:50:31;;;;;;;;;;;18.90;62.80;;;;;;5092035;28;20188;-79
2023/01/14 07:52:57;;;;;;;;;;;18.80;62.80;;;;;;5092573;28;19912;-79
2023/01/14 07:55:25;;;;;;;;;;;18.80;63.00;;;;;;5091249;28;20006;-79
2023/01/14 07:57:51;;;;;;;;;;;18.70;63.40;;;;;;5093811;28;19908;-79
2023/01/14 08:00:17;;;;;;;;;;;18.60;63.40;;;;;;5091684;28;19916;-79
2023/01/14 08:02:42;;;;;;;;;;;18.60;63.70;;;;;;5090579;28;20320;-79
2023/01/14 08:05:08;;;;;;;;;;;18.60;63.90;;;;;;5090243;28;19914;-79
2023/01/14 08:07:34;;;;;;;;;;;18.50;63.90;;;;;;5089982;28;19912;-79
2023/01/14 08:09:59;;;;;;;;;;;18.60;63.90;;;;;;5088775;28;19978;-77
2023/01/14 08:12:25;;;;;;;;;;;18.60;63.80;;;;;;5090827;28;20235;-78
2023/01/14 08:14:50;;;;;;;;;;;18.60;63.60;;;;;;5090392;28;19908;-78
2023/01/14 08:17:16;;;;;;;;;;;18.70;63.20;;;;;;5087005;28;20198;-78
2023/01/14 08:19:43;;;;;;;;;;;18.90;62.90;;;;;;5087658;28;19959;-79
2023/01/14 08:22:09;;;;;;;;;;;18.90;62.60;;;;;;5088654;28;20265;-79
2023/01/14 08:24:35;;;;;;;;;;;19.00;62.40;;;;;;5088036;28;19912;-79
2023/01/14 08:27:00;;;;;;;;;;;19.00;62.10;;;;;;5090806;28;19950;-79
2023/01/14 08:29:26;;;;;;;;;;;19.20;62.10;;;;;;5089599;28;20082;-79
2023/01/14 08:31:54;;;;;;;;;;;19.20;61.60;;;;;;5088696;28;19916;-79
2023/01/14 08:34:24;;;;;;;;;;;19.30;61.40;;;;;;5089941;28;19908;-79
2023/01/14 08:36:49;;;;;;;;;;;19.30;61.20;;;;;;5088623;28;19908;-79
2023/01/14 08:39:15;;;;;;;;;;;19.30;61.10;;;;;;5088807;28;19973;-79
2023/01/14 08:41:42;;;;;;;;;;;19.30;61.40;;;;;;5088941;28;19916;-79
2023/01/14 08:44:09;;;;;;;;;;;19.30;61.40;;;;;;5089460;28;19908;-79
2023/01/14 08:46:35;;;;;;;;;;;19.30;61.40;;;;;;5090031;28;19919;-79
2023/01/14 08:49:01;;;;;;;;;;;19.30;61.70;;;;;;5091709;28;19912;-79
2023/01/14 08:51:28;;;;;;;;;;;19.20;62.80;;;;;;5090324;28;19915;-79
2023/01/14 08:53:55;;;;;;;;;;;19.20;63.00;;;;;;5105241;28;19922;-79
2023/01/14 08:56:21;;;;;;;;;;;19.20;62.80;;;;;;5086945;28;20281;-79
2023/01/14 08:58:46;;;;;;;;;;;19.10;63.10;;;;;;5087036;28;19920;-79
2023/01/14 09:01:12;;;;;;;;;;;19.00;63.00;;;;;;5087870;28;19908;-79
2023/01/14 09:03:38;;;;;;;;;;;19.00;63.00;;;;;;5091127;28;19915;-79
2023/01/14 09:06:05;;;;;;;;;;;19.00;63.20;;;;;;5093624;28;19917;-79
2023/01/14 09:19:32;;;;;;;;;;;18.80;63.20;;;;;;5095147;28;19948;-79
2023/01/14 09:21:58;;;;;;;;;;;18.80;63.10;;;;;;5093489;28;19908;-79
2023/01/14 09:24:23;;;;;;;;;;;18.80;63.50;;;;;;5093493;28;19972;-79
2023/01/14 09:26:49;;;;;;;;;;;18.80;63.30;;;;;;5095185;28;19908;-79
2023/01/14 09:29:15;;;;;;;;;;;18.80;63.40;;;;;;5095188;28;20254;-78
2023/01/14 09:31:40;;;;;;;;;;;18.80;63.30;;;;;;5095081;28;19908;-77
2023/01/14 09:34:06;;;;;;;;;;;18.80;63.30;;;;;;5093494;28;20328;-78
2023/01/14 09:36:32;;;;;;;;;;;18.80;63.50;;;;;;5092776;28;19973;-78
2023/01/14 09:38:57;;;;;;;;;;;18.70;63.80;;;;;;5091691;28;20411;-78
2023/01/14 09:41:27;;;;;;;;;;;18.60;64.30;;;;;;5092410;28;20206;-79
2023/01/14 09:43:53;;;;;;;;;;;18.50;64.90;;;;;;5092789;28;19909;-79
2023/01/14 09:46:22;;;;;;;;;;;18.40;65.40;;;;;;5094897;28;19911;-79
2023/01/14 09:48:48;;;;;;;;;;;18.20;66.00;;;;;;5094761;28;19986;-79
2023/01/14 09:51:13;;;;;;;;;;;18.10;66.80;;;;;;5093976;28;20001;-79
2023/01/14 09:53:53;;;;;;;;;;;18.00;67.50;;;;;;5094432;28;19915;-79
2023/01/14 09:56:21;;;;;;;;;;;17.90;68.10;;;;;;5093070;28;20061;-79
2023/01/14 09:58:54;;;;;;;;;;;18.00;68.00;;;;;;5093094;28;20391;-79
2023/01/14 10:01:25;;;;;;;;;;;18.10;67.50;;;;;;5091326;28;19908;-79
2023/01/14 10:03:51;;;;;;;;;;;18.40;66.70;;;;;;5092046;28;19912;-79
2023/01/14 10:06:17;;;;;;;;;;;18.60;65.40;;;;;;5093751;28;19931;-79
2023/01/14 10:08:48;;;;;;;;;;;18.70;65.00;;;;;;5091524;28;19919;-79
2023/01/14 10:11:14;;;;;;;;;;;18.90;64.10;;;;;;5092269;28;20131;-79
2023/01/14 10:14:01;;;;;;;;;;;19.10;63.40;;;;;;5091614;28;19955;-79
2023/01/14 10:16:37;;;;;;;;;;;19.10;62.70;;;;;;5090490;28;20162;-79
2023/01/14 10:19:08;;;;;;;;;;;19.20;62.20;;;;;;5094023;28;19908;-79
2023/01/14 10:21:41;;;;;;;;;;;19.30;62.10;;;;;;5093487;28;20300;-79
2023/01/14 10:24:11;;;;;;;;;;;19.30;61.90;;;;;;5093095;28;20007;-79
2023/01/14 10:26:38;;;;;;;;;;;19.30;61.60;;;;;;5092129;28;20022;-79
2023/01/14 10:29:12;;;;;;;;;;;19.40;61.50;;;;;;5092771;28;19924;-79
2023/01/14 10:31:38;;;;;;;;;;;19.50;61.30;;;;;;5092775;28;20169;-79
2023/01/14 10:34:03;;;;;;;;;;;19.50;61.20;;;;;;5089177;28;20339;-79
2023/01/14 10:36:30;;;;;;;;;;;19.40;61.10;;;;;;5088607;28;19908;-79
2023/01/14 10:38:57;;;;;;;;;;;19.40;61.30;;;;;;5090235;28;19978;-79
2023/01/14 10:44:24;;;;;;;;;;;19.30;61.50;;;;;;5088236;28;19996;-79
2023/01/14 10:46:51;;;;;;;;;;;19.30;61.90;;;;;;5087602;28;19918;-79
2023/01/14 10:49:19;;;;;;;;;;;19.20;62.90;;;;;;5088403;28;19908;-79
2023/01/14 10:51:50;;;;;;;;;;;19.10;62.40;;;;;;5085190;28;20153;-79
2023/01/14 10:54:15;;;;;;;;;;;19.00;62.30;;;;;;5086595;28;19977;-79
2023/01/14 10:56:43;;;;;;;;;;;19.00;62.80;;;;;;5088509;28;19908;-79
2023/01/14 10:59:36;;;;;;;;;;;18.90;63.10;;;;;;5089671;28;20259;-79
2023/01/14 11:02:01;;;;;;;;;;;18.90;63.20;;;;;;5090378;28;20329;-79
2023/01/14 11:04:31;;;;;;;;;;;18.80;63.50;;;;;;5090520;28;19908;-79
2023/01/14 11:06:57;;;;;;;;;;;18.80;63.90;;;;;;5089840;28;19915;-79
2023/01/14 11:09:26;;;;;;;;;;;18.70;64.00;;;;;;5088713;28;19908;-79
2023/01/14 11:11:51;;;;;;;;;;;18.60;64.30;;;;;;5089069;28;19908;-79
2023/01/14 11:14:19;;;;;;;;;;;18.60;64.60;;;;;;5090719;28;20210;-78
2023/01/14 11:16:45;;;;;;;;;;;18.50;65.00;;;;;;5090579;28;19908;-79
2023/01/14 11:19:13;;;;;;;;;;;18.50;65.30;;;;;;5091568;28;19915;-79
2023/01/14 11:21:43;;;;;;;;;;;18.50;65.50;;;;;;5090716;28;19919;-79
2023/01/14 11:24:28;;;;;;;;;;;18.50;65.70;;;;;;5090425;28;20021;-79
2023/01/14 11:27:13;;;;;;;;;;;18.40;65.90;;;;;;5089822;28;19908;-79
2023/01/14 11:29:43;;;;;;;;;;;18.40;66.20;;;;;;5087642;28;19957;-79
2023/01/14 11:32:13;;;;;;;;;;;18.40;66.20;;;;;;5088226;28;20010;-79
2023/01/14 11:34:46;;;;;;;;;;;18.50;66.00;;;;;;5090004;28;20438;-79
2023/01/14 11:37:16;;;;;;;;;;;18.60;65.70;;;;;;5090098;28;20247;-79
2023/01/14 11:39:46;;;;;;;;;;;18.70;65.40;;;;;;5086321;28;20186;-79
2023/01/14 11:42:21;;;;;;;;;;;18.80;65.00;;;;;;5087501;28;19943;-79
2023/01/14 11:44:55;;;;;;;;;;;18.80;64.50;;;;;;5088494;28;19909;-79
2023/01/14 11:47:22;;;;;;;;;;;18.90;64.20;;;;;;5092302;28;20012;-78
2023/01/14 11:49:48;;;;;;;;;;;18.90;64.10;;;;;;5094136;28;19912;-78
2023/01/14 11:52:19;;;;;;;;;;;19.00;63.70;;;;;;5094970;28;19969;-78
2023/01/14 11:54:47;;;;;;;;;;;19.10;63.40;;;;;;5094353;28;19915;-78
2023/01/14 11:57:17;;;;;;;;;;;19.10;63.50;;;;;;5095266;28;19908;-79
2023/01/14 11:59:44;;;;;;;;;;;19.00;63.50;;;;;;5093754;28;20216;-79
2023/01/14 12:02:13;;;;;;;;;;;19.00;64.00;;;;;;5094654;28;20427;-79
2023/01/14 12:04:48;;;;;;;;;;;19.00;64.30;;;;;;5093982;28;19916;-79
2023/01/14 12:07:17;;;;;;;;;;;18.90;64.60;;;;;;5095137;28;19912;-78
2023/01/14 12:09:48;;;;;;;;;;;18.90;65.10;;;;;;5094720;28;19961;-79
2023/01/14 12:12:16;;;;;;;;;;;18.80;65.50;;;;;;5095038;28;19909;-80
2023/01/14 12:17:30;;;;;;;;;;;18.90;65.40;;;;;;5094549;28;19973;-80
2023/01/14 12:20:02;;;;;;;;;;;19.00;65.10;;;;;;5095321;28;19931;-79
2023/01/14 12:22:43;;;;;;;;;;;19.00;64.90;;;;;;5095281;28;19916;-79
2023/01/14 12:25:47;;;;;;;;;;;19.00;64.80;;;;;;5094213;28;19919;-79
2023/01/14 12:28:15;;;;;;;;;;;19.00;64.50;;;;;;5075558;28;19923;-79
2023/01/14 12:31:13;;;;;;;;;;;19.10;64.30;;;;;;5076622;28;20206;-79
2023/01/14 12:33:42;;;;;;;;;;;19.00;64.20;;;;;;5048372;28;19916;-79
2023/01/14 12:36:16;;;;;;;;;;;19.00;65.00;;;;;;5095018;28;19969;-79
2023/01/14 12:47:20;;;;;;;;;;;18.90;64.90;;;;;;5092831;28;19923;-79
2023/01/14 12:49:46;;;;;;;;;;;18.90;65.70;;;;;;5093382;28;19909;-79
2023/01/14 12:52:21;;;;;;;;;;;18.80;65.20;;;;;;5092190;28;19912;-78
2023/01/14 12:54:48;;;;;;;;;;;18.80;65.20;;;;;;5091316;28;20491;-78
2023/01/14 12:57:19;;;;;;;;;;;18.80;65.30;;;;;;5091506;28;19923;-77
2023/01/14 12:59:50;;;;;;;;;;;18.80;65.30;;;;;;5092609;28;19918;-79
2023/01/14 13:02:24;;;;;;;;;;;18.70;65.50;;;;;;5093643;28;19936;-79
2023/01/14 13:04:56;;;;;;;;;;;18.60;65.70;;;;;;5094455;28;19916;-79
2023/01/14 13:07:28;;;;;;;;;;;18.60;65.60;;;;;;5093469;28;19912;-79
2023/01/14 13:09:59;;;;;;;;;;;18.60;65.60;;;;;;5094593;28;19912;-79
2023/01/14 13:12:24;;;;;;;;;;;18.60;65.60;;;;;;5092018;28;19916;-79
2023/01/14 13:15:01;;;;;;;;;;;18.60;65.90;;;;;;5092686;28;20345;-79
2023/01/14 13:17:34;;;;;;;;;;;18.50;65.80;;;;;;5091728;28;19908;-79
2023/01/14 13:20:03;;;;;;;;;;;18.50;65.80;;;;;;5092065;28;20293;-79
2023/01/14 13:22:43;;;;;;;;;;;18.50;65.80;;;;;;5092338;28;19916;-79
2023/01/14 13:25:15;;;;;;;;;;;18.60;65.70;;;;;;5092523;28;20028;-79
2023/01/14 13:27:41;;;;;;;;;;;18.50;65.80;;;;;;5091617;28;19912;-79
2023/01/14 13:30:19;;;;;;;;;;;18.50;66.00;;;;;;5092379;28;19916;-79
2023/01/14 13:33:00;;;;;;;;;;;18.40;66.20;;;;;;5092913;28;19919;-79
2023/01/14 13:35:30;;;;;;;;;;;18.30;66.90;;;;;;5094125;28;20538;-79
2023/01/14 13:38:03;;;;;;;;;;;18.20;67.40;;;;;;5092487;28;20299;-78
2023/01/14 13:40:33;;;;;;;;;;;18.00;68.00;;;;;;5090031;28;20341;-79
2023/01/14 13:42:59;;;;;;;;;;;17.90;68.90;;;;;;5087956;28;19976;-79
2023/01/14 13:45:26;;;;;;;;;;;17.80;69.60;;;;;;5088728;28;19915;-79
2023/01/14 13:47:52;;;;;;;;;;;17.70;70.30;;;;;;5089663;28;19912;-79
2023/01/14 13:50:36;;;;;;;;;;;17.70;70.90;;;;;;5091362;28;20240;-79
2023/01/14 13:53:17;;;;;;;;;;;17.90;70.90;;;;;;5093892;28;20289;-79
2023/01/14 13:55:50;;;;;;;;;;;18.30;68.90;;;;;;5095991;28;19916;-79
2023/01/14 13:58:18;;;;;;;;;;;18.80;66.40;;;;;;5094689;28;20000;-79
2023/01/14 14:00:44;;;;;;;;;;;19.10;65.50;;;;;;5096949;28;19908;-79
2023/01/14 14:03:28;;;;;;;;;;;19.20;65.10;;;;;;5096335;28;19969;-79
2023/01/14 14:06:18;;;;;;;;;;;19.30;64.50;;;;;;5096445;28;19973;-79
2023/01/14 14:08:44;;;;;;;;;;;19.30;64.40;;;;;;5094319;28;19920;-78
2023/01/14 14:11:11;;;;;;;;;;;19.30;65.80;;;;;;5095682;28;19915;-78
2023/01/14 14:16:27;;;;;;;;;;;19.30;66.80;;;;;;5095165;28;19993;-77
2023/01/14 14:19:16;;;;;;;;;;;19.20;67.10;;;;;;5094877;28;19918;-78
2023/01/14 14:21:47;;;;;;;;;;;19.20;67.30;;;;;;5088091;28;20491;-78
2023/01/14 14:24:17;;;;;;;;;;;19.10;67.80;;;;;;5096384;28;20109;-78
2023/01/14 14:26:44;;;;;;;;;;;19.10;68.20;;;;;;5094294;28;19939;-78
2023/01/14 14:29:13;;;;;;;;;;;19.10;68.50;;;;;;5094100;28;20427;-79
2023/01/14 14:31:39;;;;;;;;;;;19.10;68.60;;;;;;5093422;28;19939;-78
2023/01/14 14:34:06;;;;;;;;;;;19.00;69.20;;;;;;5093531;28;19908;-78
2023/01/14 14:36:32;;;;;;;;;;;18.90;69.40;;;;;;5094152;28;19908;-78
2023/01/14 14:38:59;;;;;;;;;;;18.80;69.90;;;;;;5091456;28;20305;-78
2023/01/14 14:41:28;;;;;;;;;;;18.70;70.40;;;;;;5095088;28;19908;-79
2023/01/14 14:43:59;;;;;;;;;;;18.60;70.70;;;;;;5095364;28;19919;-78
2023/01/14 14:46:25;;;;;;;;;;;18.50;71.10;;;;;;5095257;28;19973;-78
2023/01/14 14:48:51;;;;;;;;;;;18.40;71.50;;;;;;5094127;28;19912;-78
2023/01/14 14:51:25;;;;;;;;;;;18.40;71.90;;;;;;5095819;28;20250;-78
2023/01/14 14:53:51;;;;;;;;;;;18.30;72.10;;;;;;5094219;28;19912;-78
2023/01/14 14:56:18;;;;;;;;;;;18.30;72.40;;;;;;5096550;28;19915;-79
2023/01/14 14:58:52;;;;;;;;;;;18.20;72.80;;;;;;5096193;28;19926;-78
2023/01/14 15:01:29;;;;;;;;;;;18.20;73.10;;;;;;5094625;28;20512;-79
2023/01/14 15:03:55;;;;;;;;;;;18.10;73.30;;;;;;5094858;28;19908;-79
2023/01/14 15:06:21;;;;;;;;;;;18.00;73.50;;;;;;5094873;28;19961;-79
2023/01/14 15:09:08;;;;;;;;;;;18.00;73.90;;;;;;5094283;28;19924;-78
2023/01/14 15:11:37;;;;;;;;;;;18.00;74.20;;;;;;5093906;28;19973;-78
2023/01/14 15:14:03;;;;;;;;;;;18.00;74.40;;;;;;5093799;28;19957;-78
2023/01/14 15:16:34;;;;;;;;;;;18.00;74.30;;;;;;5093322;28;19916;-78